createdAt,value
2023-02-16T00:01:17.109Z,97404.69
2023-02-16T00:03:43.612Z,97406.59
2023-02-16T00:06:17.067Z,97396.00
2023-02-16T00:08:47.788Z,97377.22
2023-02-16T00:11:54.256Z,97386.50
2023-02-16T00:14:23.457Z,97380.38
2023-02-16T00:16:51.321Z,97364.88
2023-02-16T00:19:18.024Z,97349.56
2023-02-16T00:21:44.967Z,97356.84
2023-02-16T00:24:13.253Z,97345.00
2023-02-16T00:26:40.809Z,97337.25
2023-02-16T00:29:07.453Z,97324.59
2023-02-16T00:31:34.060Z,97320.22
2023-02-16T00:34:04.989Z,97310.25
2023-02-16T00:36:31.472Z,97304.88
2023-02-16T00:38:59.043Z,97303.63
2023-02-16T00:41:43.856Z,97293.34
2023-02-16T00:44:14.842Z,97289.25
2023-02-16T00:46:41.333Z,97280.25
2023-02-16T00:49:13.373Z,97256.41
2023-02-16T00:51:41.156Z,97259.25
2023-02-16T00:54:07.627Z,97259.72
2023-02-16T00:56:34.122Z,97259.72
2023-02-16T00:59:01.155Z,97247.41
2023-02-16T01:01:29.784Z,97239.81
2023-02-16T01:03:56.504Z,97253.09
2023-02-16T01:06:41.416Z,97247.88
2023-02-16T01:09:33.404Z,97230.03
2023-02-16T01:12:01.882Z,97227.47
2023-02-16T01:14:29.674Z,97222.47
2023-02-16T01:16:57.278Z,97226.88
2023-02-16T01:19:25.198Z,97220.09
2023-02-16T01:21:52.737Z,97215.94
2023-02-16T01:24:19.178Z,97216.47
2023-02-16T01:26:47.815Z,97220.41
2023-02-16T01:29:15.669Z,97201.41
2023-02-16T01:31:42.396Z,97203.81
2023-02-16T01:34:08.959Z,97198.47
2023-02-16T01:36:39.864Z,97201.31
2023-02-16T01:39:06.815Z,97189.47
2023-02-16T01:41:51.573Z,97178.66
2023-02-16T01:44:23.732Z,97189.63
2023-02-16T01:47:00.528Z,97201.16
2023-02-16T01:49:28.396Z,97191.53
2023-02-16T01:52:05.132Z,97181.53
2023-02-16T01:54:32.719Z,97196.25
2023-02-16T01:57:05.223Z,97208.88
2023-02-16T01:59:43.998Z,97206.41
2023-02-16T02:02:30.775Z,97187.72
2023-02-16T02:05:18.479Z,97189.94
2023-02-16T02:07:46.313Z,97194.09
2023-02-16T02:10:20.998Z,97185.56
2023-02-16T02:12:48.923Z,97169.41
2023-02-16T02:15:17.058Z,97175.09
2023-02-16T02:17:43.634Z,97176.41
2023-02-16T02:20:13.743Z,97158.25
2023-02-16T02:23:01.520Z,97141.00
2023-02-16T02:25:37.007Z,97157.94
2023-02-16T02:28:12.674Z,97158.88
2023-02-16T02:30:47.785Z,97139.44
2023-02-16T02:33:20.350Z,97142.47
2023-02-16T02:35:46.854Z,97140.25
2023-02-16T02:38:16.535Z,97141.38
2023-02-16T02:41:19.807Z,97118.63
2023-02-16T02:43:52.491Z,97113.91
2023-02-16T02:46:24.791Z,97127.03
2023-02-16T02:48:52.553Z,97097.38
2023-02-16T02:51:31.195Z,97081.06
2023-02-16T02:54:16.484Z,97074.75
2023-02-16T02:57:04.503Z,97073.56
2023-02-16T02:59:51.553Z,97038.22
2023-02-16T03:02:19.100Z,97054.47
2023-02-16T03:04:47.249Z,97059.59
2023-02-16T03:07:14.241Z,97059.81
2023-02-16T03:09:40.878Z,97060.13
2023-02-16T03:12:27.702Z,97045.44
2023-02-16T03:14:56.640Z,97030.56
2023-02-16T03:17:52.772Z,97028.41
2023-02-16T03:20:38.384Z,97030.47
2023-02-16T03:23:24.819Z,97009.44
2023-02-16T03:26:11.621Z,97004.53
2023-02-16T03:28:57.869Z,96997.97
2023-02-16T03:31:28.378Z,96975.41
2023-02-16T03:33:55.186Z,96964.59
2023-02-16T03:36:26.310Z,96969.41
2023-02-16T03:38:54.100Z,96963.91
2023-02-16T03:41:20.578Z,96960.88
2023-02-16T03:43:48.236Z,96943.78
2023-02-16T03:46:14.869Z,96964.69
2023-02-16T03:48:42.741Z,96952.38
2023-02-16T03:51:09.184Z,96962.47
2023-02-16T03:53:35.685Z,96949.28
2023-02-16T03:56:02.138Z,96970.97
2023-02-16T03:58:28.632Z,96971.16
2023-02-16T04:00:55.320Z,96953.63
2023-02-16T04:03:21.816Z,96948.50
2023-02-16T04:05:48.285Z,96949.53
2023-02-16T04:08:14.735Z,96965.31
2023-02-16T04:10:41.438Z,96941.47
2023-02-16T04:13:07.910Z,96956.53
2023-02-16T04:15:34.472Z,96967.19
2023-02-16T04:18:01.728Z,96967.50
2023-02-16T04:20:29.957Z,96964.69
2023-02-16T04:22:56.725Z,96943.78
2023-02-16T04:25:24.461Z,96946.06
2023-02-16T04:27:51.245Z,96955.84
2023-02-16T04:30:22.412Z,96960.59
2023-02-16T04:32:49.374Z,96955.78
2023-02-16T04:35:16.009Z,96964.50
2023-02-16T04:37:43.881Z,96962.31
2023-02-16T04:40:13.623Z,96951.13
2023-02-16T04:42:40.942Z,96949.13
2023-02-16T04:45:07.733Z,96950.16
2023-02-16T04:47:34.344Z,96950.81
2023-02-16T04:50:00.796Z,96947.50
2023-02-16T04:52:27.427Z,96939.84
2023-02-16T04:54:53.952Z,96956.31
2023-02-16T04:57:22.581Z,96973.53
2023-02-16T04:59:49.062Z,96979.84
2023-02-16T05:02:15.538Z,96996.38
2023-02-16T05:04:42.339Z,96994.34
2023-02-16T05:07:09.124Z,97012.19
2023-02-16T05:09:35.603Z,97017.09
2023-02-16T05:12:21.884Z,97027.19
2023-02-16T05:14:48.390Z,97028.56
2023-02-16T05:17:17.080Z,97056.03
2023-02-16T05:19:45.529Z,97070.72
2023-02-16T05:22:12.212Z,97068.03
2023-02-16T05:24:40.138Z,97068.97
2023-02-16T05:27:07.910Z,97088.41
2023-02-16T05:29:34.596Z,97110.50
2023-02-16T05:32:04.264Z,97121.25
2023-02-16T05:34:31.160Z,97131.31
2023-02-16T05:36:57.636Z,97167.59
2023-02-16T05:39:25.937Z,97189.38
2023-02-16T05:41:52.463Z,97202.81
2023-02-16T05:44:20.235Z,97196.31
2023-02-16T05:46:46.980Z,97213.34
2023-02-16T05:49:14.138Z,97219.22
2023-02-16T05:51:41.058Z,97205.94
2023-02-16T05:54:08.057Z,97195.22
2023-02-16T05:56:35.882Z,97202.00
2023-02-16T05:59:02.328Z,97210.84
2023-02-16T06:01:29.229Z,97221.25
2023-02-16T06:03:55.836Z,97212.88
2023-02-16T06:06:22.345Z,97208.31
2023-02-16T06:08:50.189Z,97221.09
2023-02-16T06:11:35.065Z,97214.78
2023-02-16T06:14:03.171Z,97211.75
2023-02-16T06:16:30.998Z,97212.44
2023-02-16T06:18:58.192Z,97216.50
2023-02-16T06:21:25.151Z,97221.69
2023-02-16T06:23:53.174Z,97220.91
2023-02-16T06:26:19.866Z,97198.69
2023-02-16T06:28:49.769Z,97202.94
2023-02-16T06:31:16.969Z,97211.75
2023-02-16T06:33:43.945Z,97215.06
2023-02-16T06:36:10.828Z,97202.94
2023-02-16T06:38:38.705Z,97207.69
2023-02-16T06:41:05.892Z,97217.59
2023-02-16T06:43:32.714Z,97230.06
2023-02-16T06:46:00.534Z,97207.84
2023-02-16T06:48:27.031Z,97215.88
2023-02-16T06:50:54.736Z,97208.16
2023-02-16T06:53:21.248Z,97196.97
2023-02-16T06:55:51.436Z,97187.97
2023-02-16T06:58:17.893Z,97202.94
2023-02-16T07:00:44.462Z,97197.44
2023-02-16T07:03:11.002Z,97188.75
2023-02-16T07:05:37.964Z,97177.72
2023-02-16T07:08:04.794Z,97160.03
2023-02-16T07:10:43.850Z,97164.91
2023-02-16T07:13:19.134Z,97164.00
2023-02-16T07:15:45.809Z,97145.72
2023-02-16T07:18:13.146Z,97128.03
2023-02-16T07:20:39.822Z,97142.53
2023-02-16T07:23:06.754Z,97145.84
2023-02-16T07:25:36.756Z,97146.50
2023-02-16T07:28:03.698Z,97140.31
2023-02-16T07:30:31.495Z,97150.91
2023-02-16T07:32:58.005Z,97142.53
2023-02-16T07:35:25.685Z,97142.06
2023-02-16T07:37:52.141Z,97127.53
2023-02-16T07:40:18.682Z,97140.63
2023-02-16T07:42:45.203Z,97129.28
2023-02-16T07:45:11.671Z,97113.03
2023-02-16T07:47:38.285Z,97112.72
2023-02-16T07:50:06.593Z,97111.91
2023-02-16T07:52:33.873Z,97106.56
2023-02-16T07:55:00.412Z,97100.25
2023-02-16T07:57:27.565Z,97084.75
2023-02-16T07:59:54.464Z,97072.59
2023-02-16T08:02:24.397Z,97073.75
2023-02-16T08:04:52.832Z,97054.63
2023-02-16T08:07:19.966Z,97041.06
2023-02-16T08:09:46.594Z,97034.72
2023-02-16T08:12:15.427Z,97029.22
2023-02-16T08:14:42.269Z,97027.47
2023-02-16T08:17:10.067Z,97005.44
2023-02-16T08:19:40.632Z,97008.91
2023-02-16T08:22:07.964Z,97005.78
2023-02-16T08:24:35.899Z,96996.78
2023-02-16T08:27:03.894Z,96989.94
2023-02-16T08:29:30.949Z,96990.31
2023-02-16T08:31:57.538Z,97001.41
2023-02-16T08:34:24.650Z,96999.72
2023-02-16T08:36:57.540Z,96985.97
2023-02-16T08:39:26.091Z,96970.69
2023-02-16T08:41:54.257Z,96983.00
2023-02-16T08:44:21.912Z,97001.50
2023-02-16T08:46:50.396Z,97004.00
2023-02-16T08:49:19.974Z,96996.31
2023-02-16T08:51:49.602Z,97011.69
2023-02-16T08:54:18.815Z,97026.22
2023-02-16T08:56:47.898Z,97015.75
2023-02-16T08:59:15.483Z,97016.88
2023-02-16T09:01:42.330Z,97046.81
2023-02-16T09:04:09.059Z,97067.97
2023-02-16T09:06:39.581Z,97078.53
2023-02-16T09:09:06.580Z,97094.66
2023-02-16T09:11:33.116Z,97123.81
2023-02-16T09:13:59.656Z,97148.00
2023-02-16T09:16:29.315Z,97164.44
2023-02-16T09:18:57.485Z,97169.88
2023-02-16T09:21:25.591Z,97210.53
2023-02-16T09:23:54.449Z,97231.44
2023-02-16T09:26:22.055Z,97222.22
2023-02-16T09:28:50.122Z,97202.84
2023-02-16T09:31:23.700Z,97242.94
2023-02-16T09:33:50.230Z,97267.28
2023-02-16T09:36:17.380Z,97276.59
2023-02-16T09:38:44.216Z,97269.72
2023-02-16T09:41:24.008Z,97309.94
2023-02-16T09:44:02.696Z,97321.97
2023-02-16T09:46:30.591Z,97307.09
2023-02-16T09:48:57.432Z,97326.50
2023-02-16T09:51:34.347Z,97344.88
2023-02-16T09:54:17.034Z,97340.63
2023-02-16T09:56:51.602Z,97319.34
2023-02-16T09:59:48.357Z,97362.56
2023-02-16T10:02:15.028Z,97376.81
2023-02-16T10:04:43.875Z,97380.72
2023-02-16T10:07:20.473Z,97385.31
2023-02-16T10:09:50.927Z,97393.41
2023-02-16T10:12:22.021Z,97392.13
2023-02-16T10:14:54.087Z,97386.53
2023-02-16T10:17:39.893Z,97413.47
2023-02-16T10:20:15.120Z,97420.09
2023-02-16T10:23:00.462Z,97421.38
2023-02-16T10:25:29.944Z,97437.94
2023-02-16T10:28:05.346Z,97463.28
2023-02-16T10:30:32.729Z,97479.88
2023-02-16T10:33:03.297Z,97470.34
2023-02-16T10:35:44.038Z,97482.38
2023-02-16T10:38:25.738Z,97504.41
2023-02-16T10:41:06.216Z,97475.59
2023-02-16T10:43:50.450Z,97488.66
2023-02-16T10:46:23.529Z,97507.38
2023-02-16T10:48:54.590Z,97517.34
2023-02-16T10:51:25.533Z,97509.41
2023-02-16T10:53:54.576Z,97528.84
2023-02-16T10:56:33.180Z,97533.63
2023-02-16T10:59:00.882Z,97520.66
2023-02-16T11:01:43.267Z,97507.00
2023-02-16T11:04:29.175Z,97540.88
2023-02-16T11:07:10.907Z,97564.00
2023-02-16T11:09:37.868Z,97567.78
2023-02-16T11:12:23.039Z,97583.63
2023-02-16T11:14:52.845Z,97601.66
2023-02-16T11:17:22.580Z,97599.28
2023-02-16T11:20:01.642Z,97597.34
2023-02-16T11:22:37.044Z,97622.88
2023-02-16T11:25:32.877Z,97601.00
2023-02-16T11:28:02.043Z,97595.47
2023-02-16T11:30:29.428Z,97613.19
2023-02-16T11:32:57.968Z,97634.72
2023-02-16T11:35:24.477Z,97624.44
2023-02-16T11:37:51.221Z,97625.66
2023-02-16T11:40:23.457Z,97645.97
2023-02-16T11:42:55.082Z,97658.16
2023-02-16T11:45:32.152Z,97653.84
2023-02-16T11:48:01.831Z,97678.41
2023-02-16T11:50:32.951Z,97680.47
2023-02-16T11:53:12.833Z,97664.78
2023-02-16T11:55:43.188Z,97679.03
2023-02-16T11:58:15.383Z,97673.81
2023-02-16T12:00:46.518Z,97650.84
2023-02-16T12:03:17.219Z,97677.00
2023-02-16T12:06:01.145Z,97675.72
2023-02-16T12:09:00.112Z,97662.72
2023-02-16T12:11:42.398Z,97661.28
2023-02-16T12:14:27.850Z,97678.25
2023-02-16T12:17:14.319Z,97660.03
2023-02-16T12:19:43.365Z,97643.06
2023-02-16T12:22:24.817Z,97654.50
2023-02-16T12:24:53.673Z,97644.53
2023-02-16T12:27:25.433Z,97636.41
2023-02-16T12:29:55.123Z,97671.09
2023-02-16T12:32:31.190Z,97664.16
2023-02-16T12:35:19.103Z,97646.06
2023-02-16T12:37:49.978Z,97672.06
2023-02-16T12:40:23.650Z,97689.16
2023-02-16T12:43:04.149Z,97679.63
2023-02-16T12:45:36.652Z,97699.91
2023-02-16T12:48:23.149Z,97698.50
2023-02-16T12:50:51.148Z,97691.19
2023-02-16T12:53:24.591Z,97700.69
2023-02-16T12:55:56.128Z,97698.50
2023-02-16T12:58:28.326Z,97678.56
2023-02-16T13:01:00.085Z,97683.59
2023-02-16T13:03:30.150Z,97693.13
2023-02-16T13:05:59.418Z,97689.94
2023-02-16T13:08:38.978Z,97709.56
2023-02-16T13:11:24.957Z,97702.94
2023-02-16T13:13:54.102Z,97682.47
2023-02-16T13:16:30.071Z,97704.34
2023-02-16T13:19:00.015Z,97703.88
2023-02-16T13:21:49.112Z,97697.56
2023-02-16T13:24:35.913Z,97685.97
2023-02-16T13:27:21.001Z,97713.25
2023-02-16T13:29:52.726Z,97692.16
2023-02-16T13:32:38.669Z,97682.97
2023-02-16T13:35:23.650Z,97705.47
2023-02-16T13:37:58.312Z,97707.06
2023-02-16T13:40:37.230Z,97691.00
2023-02-16T13:43:03.695Z,97709.56
2023-02-16T13:45:33.229Z,97713.38
2023-02-16T13:48:00.214Z,97703.03
2023-02-16T13:50:27.066Z,97718.75
2023-02-16T13:52:54.885Z,97709.91
2023-02-16T13:55:32.022Z,97694.84
2023-02-16T13:58:02.699Z,97712.25
2023-02-16T14:00:31.491Z,97714.19
2023-02-16T14:02:58.652Z,97697.38
2023-02-16T14:05:34.259Z,97706.72
2023-02-16T14:08:09.717Z,97700.56
2023-02-16T14:10:53.194Z,97691.81
2023-02-16T14:13:31.630Z,97693.41
2023-02-16T14:16:03.877Z,97689.47
2023-02-16T14:18:32.936Z,97671.91
2023-02-16T14:21:04.095Z,97663.78
2023-02-16T14:23:37.526Z,97689.94
2023-02-16T14:26:05.348Z,97677.91
2023-02-16T14:28:31.983Z,97662.69
2023-02-16T14:31:06.014Z,97676.34
2023-02-16T14:33:38.898Z,97677.91
2023-02-16T14:36:15.565Z,97660.66
2023-02-16T14:38:42.272Z,97661.59
2023-02-16T14:41:23.492Z,97668.13
2023-02-16T14:43:51.523Z,97643.75
2023-02-16T14:46:44.113Z,97625.66
2023-02-16T14:49:13.976Z,97626.31
2023-02-16T14:51:40.828Z,97614.47
2023-02-16T14:54:19.331Z,97598.50
2023-02-16T14:56:50.896Z,97602.59
2023-02-16T14:59:18.766Z,97611.16
2023-02-16T15:01:46.048Z,97599.41
2023-02-16T15:04:12.927Z,97606.69
2023-02-16T15:06:44.589Z,97629.50
2023-02-16T15:09:20.877Z,97619.22
2023-02-16T15:12:11.376Z,97624.44
2023-02-16T15:14:44.173Z,97631.88
2023-02-16T15:17:16.422Z,97644.97
2023-02-16T15:19:43.942Z,97651.50
2023-02-16T15:22:17.715Z,97633.63
2023-02-16T15:24:44.264Z,97603.25
2023-02-16T15:27:20.344Z,97592.94
2023-02-16T15:29:47.254Z,97601.19
2023-02-16T15:32:18.394Z,97571.94
2023-02-16T15:34:45.060Z,97552.63
2023-02-16T15:37:41.355Z,97542.34
2023-02-16T15:40:30.671Z,97563.69
2023-02-16T15:43:00.772Z,97559.44
2023-02-16T15:45:32.736Z,97564.50
2023-02-16T15:48:29.572Z,97562.13
2023-02-16T15:51:02.004Z,97561.78
2023-02-16T15:53:38.090Z,97566.53
2023-02-16T15:56:14.250Z,97544.88
2023-02-16T15:58:41.680Z,97542.97
2023-02-16T16:01:10.836Z,97529.84
2023-02-16T16:03:37.414Z,97515.91
2023-02-16T16:06:06.449Z,97479.88
2023-02-16T16:08:33.415Z,97456.38
2023-02-16T16:11:01.464Z,97453.81
2023-02-16T16:13:30.118Z,97434.72
2023-02-16T16:16:02.258Z,97416.38
2023-02-16T16:18:41.186Z,97404.19
2023-02-16T16:21:16.257Z,97404.69
2023-02-16T16:23:53.785Z,97382.91
2023-02-16T16:26:21.349Z,97346.91
2023-02-16T16:28:47.955Z,97339.47
2023-02-16T16:31:20.757Z,97342.44
2023-02-16T16:34:03.789Z,97344.19
2023-02-16T16:36:31.379Z,97330.47
2023-02-16T16:39:21.123Z,97315.94
2023-02-16T16:42:07.966Z,97330.63
2023-02-16T16:44:37.485Z,97316.88
2023-02-16T16:47:25.648Z,97273.94
2023-02-16T16:49:54.539Z,97246.47
2023-02-16T16:52:31.097Z,97258.78
2023-02-16T16:54:57.602Z,97225.66
2023-02-16T16:57:25.501Z,97208.63
2023-02-16T16:59:52.089Z,97190.75
2023-02-16T17:02:18.689Z,97190.09
2023-02-16T17:04:45.138Z,97208.28
2023-02-16T17:07:11.645Z,97212.09
2023-02-16T17:09:38.155Z,97194.09
2023-02-16T17:12:04.729Z,97185.75
2023-02-16T17:14:32.898Z,97200.28
2023-02-16T17:17:00.854Z,97179.91
2023-02-16T17:19:30.671Z,97158.31
2023-02-16T17:21:57.187Z,97134.19
2023-02-16T17:24:25.058Z,97125.97
2023-02-16T17:26:52.974Z,97135.75
2023-02-16T17:29:19.612Z,97162.81
2023-02-16T17:31:49.588Z,97145.63
2023-02-16T17:34:17.105Z,97126.22
2023-02-16T17:36:43.685Z,97107.69
2023-02-16T17:39:10.191Z,97109.38
2023-02-16T17:41:36.680Z,97076.47
2023-02-16T17:44:05.271Z,97050.94
2023-02-16T17:46:32.067Z,97025.75
2023-02-16T17:48:59.834Z,97017.41
2023-02-16T17:51:26.929Z,97003.22
2023-02-16T17:53:53.471Z,96975.66
2023-02-16T17:56:23.162Z,96947.63
2023-02-16T17:58:51.310Z,96929.00
2023-02-16T18:01:18.168Z,96921.91
2023-02-16T18:03:44.785Z,96906.00
2023-02-16T18:06:15.763Z,96900.00
2023-02-16T18:08:42.477Z,96882.66
2023-02-16T18:11:08.957Z,96880.81
2023-02-16T18:13:36.685Z,96874.03
2023-02-16T18:16:04.089Z,96844.22
2023-02-16T18:18:32.955Z,96824.38
2023-02-16T18:20:59.960Z,96817.25
2023-02-16T18:23:26.588Z,96879.13
2023-02-16T18:25:53.142Z,96905.75
2023-02-16T18:28:22.052Z,96923.38
2023-02-16T18:30:50.418Z,96915.34
2023-02-16T18:33:17.566Z,96927.94
2023-02-16T18:35:45.718Z,96933.59
2023-02-16T18:38:12.192Z,96891.91
2023-02-16T18:40:41.255Z,96866.97
2023-02-16T18:43:09.042Z,96845.53
2023-02-16T18:45:37.407Z,96834.56
2023-02-16T18:48:05.517Z,96837.38
2023-02-16T18:50:33.130Z,96826.84
2023-02-16T18:52:59.656Z,96864.84
2023-02-16T18:55:27.973Z,96882.75
2023-02-16T18:57:54.806Z,96906.63
2023-02-16T19:00:21.878Z,96906.63
2023-02-16T19:02:51.318Z,96898.28
2023-02-16T19:05:19.008Z,96852.09
2023-02-16T19:07:45.550Z,96806.56
2023-02-16T19:10:12.182Z,96796.13
2023-02-16T19:12:39.658Z,96792.13
2023-02-16T19:15:06.761Z,96770.72
2023-02-16T19:17:33.273Z,96728.75
2023-02-16T19:20:00.997Z,96688.88
2023-02-16T19:22:27.517Z,96706.56
2023-02-16T19:24:54.057Z,96718.16
2023-02-16T19:27:21.977Z,96712.94
2023-02-16T19:29:48.428Z,96708.09
2023-02-16T19:32:15.111Z,96724.69
2023-02-16T19:34:41.566Z,96755.00
2023-02-16T19:37:08.086Z,96753.44
2023-02-16T19:39:35.126Z,96746.72
2023-02-16T19:42:01.758Z,96745.13
2023-02-16T19:44:28.309Z,96758.41
2023-02-16T19:46:54.906Z,96749.09
2023-02-16T19:49:21.351Z,96747.78
2023-02-16T19:51:48.997Z,96751.97
2023-02-16T19:54:15.537Z,96786.00
2023-02-16T19:56:42.225Z,96785.06
2023-02-16T19:59:09.798Z,96770.06
2023-02-16T20:01:36.424Z,96762.38
2023-02-16T20:04:03.598Z,96770.91
2023-02-16T20:06:34.415Z,96785.66
2023-02-16T20:09:01.413Z,96807.19
2023-02-16T20:11:28.961Z,96803.88
2023-02-16T20:13:55.975Z,96819.63
2023-02-16T20:16:23.861Z,96823.00
2023-02-16T20:18:50.809Z,96855.38
2023-02-16T20:21:18.606Z,96863.09
2023-02-16T20:23:45.420Z,96854.91
2023-02-16T20:26:13.768Z,96869.56
2023-02-16T20:28:40.797Z,96855.84
2023-02-16T20:31:15.699Z,96851.94
2023-02-16T20:33:42.258Z,96820.31
2023-02-16T20:36:09.421Z,96805.19
2023-02-16T20:38:35.924Z,96804.56
2023-02-16T20:41:02.470Z,96760.00
2023-02-16T20:43:30.378Z,96727.44
2023-02-16T20:45:57.793Z,96689.75
2023-02-16T20:48:24.872Z,96684.75
2023-02-16T20:50:55.302Z,96671.19
2023-02-16T20:53:21.869Z,96670.94
2023-02-16T20:55:49.676Z,96670.31
2023-02-16T20:58:16.395Z,96664.81
2023-02-16T21:00:43.957Z,96699.66
2023-02-16T21:03:10.437Z,96717.47
2023-02-16T21:05:36.888Z,96730.38
2023-02-16T21:08:04.977Z,96730.97
2023-02-16T21:10:32.553Z,96726.44
2023-02-16T21:12:59.189Z,96748.56
2023-02-16T21:15:25.716Z,96755.31
2023-02-16T21:17:53.349Z,96744.75
2023-02-16T21:20:20.644Z,96725.59
2023-02-16T21:22:47.913Z,96731.84
2023-02-16T21:25:15.242Z,96731.38
2023-02-16T21:27:41.875Z,96684.59
2023-02-16T21:30:09.002Z,96646.88
2023-02-16T21:32:35.572Z,96608.81
2023-02-16T21:35:02.149Z,96550.41
2023-02-16T21:37:28.662Z,96571.56
2023-02-16T21:40:13.452Z,96543.63
2023-02-16T21:42:39.899Z,96523.66
2023-02-16T21:45:16.975Z,96509.72
2023-02-16T21:48:03.305Z,96478.41
2023-02-16T21:50:30.903Z,96483.09
2023-02-16T21:52:59.802Z,96447.91
2023-02-16T21:55:46.450Z,96439.34
2023-02-16T21:58:12.966Z,96418.97
2023-02-16T22:00:41.471Z,96413.34
2023-02-16T22:03:08.474Z,96401.06
2023-02-16T22:05:36.016Z,96384.81
2023-02-16T22:08:02.580Z,96389.81
2023-02-16T22:10:29.622Z,96405.53
2023-02-16T22:12:56.324Z,96420.09
2023-02-16T22:15:23.103Z,96441.66
2023-02-16T22:17:49.651Z,96452.19
2023-02-16T22:20:17.055Z,96462.47
2023-02-16T22:22:43.816Z,96455.97
2023-02-16T22:25:10.859Z,96465.28
2023-02-16T22:27:38.845Z,96447.00
2023-02-16T22:30:07.237Z,96460.09
2023-02-16T22:32:35.066Z,96449.97
2023-02-16T22:35:01.583Z,96437.94
2023-02-16T22:37:29.201Z,96435.91
2023-02-16T22:39:55.784Z,96438.47
2023-02-16T22:42:23.886Z,96435.47
2023-02-16T22:44:50.342Z,96415.88
2023-02-16T22:47:17.150Z,96419.41
2023-02-16T22:49:43.647Z,96407.34
2023-02-16T22:52:11.461Z,96393.97
2023-02-16T22:54:38.148Z,96372.59
2023-02-16T22:57:04.690Z,96379.53
2023-02-16T22:59:32.452Z,96392.44
2023-02-16T23:01:59.137Z,96384.34
2023-02-16T23:04:25.773Z,96378.03
2023-02-16T23:06:52.437Z,96377.09
2023-02-16T23:09:20.909Z,96370.00
2023-02-16T23:11:48.249Z,96361.28
2023-02-16T23:14:19.184Z,96354.63
2023-02-16T23:16:46.657Z,96357.75
2023-02-16T23:19:15.326Z,96351.50
2023-02-16T23:21:42.145Z,96358.19
2023-02-16T23:24:11.920Z,96359.06
2023-02-16T23:26:39.685Z,96346.38
2023-02-16T23:29:07.386Z,96362.19
2023-02-16T23:31:34.967Z,96366.63
2023-02-16T23:34:02.885Z,96377.09
2023-02-16T23:36:29.485Z,96389.38
2023-02-16T23:38:58.800Z,96388.28
2023-02-16T23:41:26.511Z,96392.19
2023-02-16T23:43:53.018Z,96401.88
2023-02-16T23:46:19.509Z,96412.50
2023-02-16T23:48:46.086Z,96423.31
2023-02-16T23:51:12.601Z,96429.56
2023-02-16T23:53:39.198Z,96442.31
2023-02-16T23:56:13.055Z,96465.34
2023-02-16T23:58:46.316Z,96489.09
